createdAt,value
2019-03-20T00:04:53.797Z,6.53
2019-03-20T00:09:47.033Z,6.97
2019-03-20T00:14:40.518Z,6.40
2019-03-20T00:19:33.609Z,5.73
2019-03-20T00:24:27.324Z,5.93
2019-03-20T00:29:21.323Z,6.50
2019-03-20T00:34:14.926Z,6.13
2019-03-20T00:39:08.909Z,6.10
2019-03-20T00:44:02.294Z,5.50
2019-03-20T00:48:55.664Z,6.23
2019-03-20T00:53:48.845Z,5.77
2019-03-20T00:58:41.937Z,5.77
2019-03-20T01:03:35.024Z,6.43
2019-03-20T01:08:28.145Z,6.53
2019-03-20T01:13:21.437Z,6.50
2019-03-20T01:18:14.881Z,6.20
2019-03-20T01:23:08.088Z,6.70
2019-03-20T01:28:01.343Z,5.27
2019-03-20T01:32:54.409Z,5.43
2019-03-20T01:37:47.507Z,5.63
2019-03-20T01:42:41.485Z,5.67
2019-03-20T01:47:34.679Z,6.00
2019-03-20T01:52:28.557Z,5.17
2019-03-20T01:57:21.686Z,5.30
2019-03-20T02:02:15.391Z,5.60
2019-03-20T02:07:09.312Z,5.00
2019-03-20T02:12:05.110Z,5.50
2019-03-20T02:16:59.207Z,5.17
2019-03-20T02:21:52.957Z,5.60
2019-03-20T02:26:46.159Z,5.67
2019-03-20T02:31:39.512Z,5.63
2019-03-20T02:36:32.813Z,6.00
2019-03-20T02:41:26.175Z,5.57
2019-03-20T02:46:19.313Z,5.50
2019-03-20T02:51:12.499Z,6.13
2019-03-20T02:56:05.726Z,5.63
2019-03-20T03:00:58.904Z,6.17
2019-03-20T03:06:05.660Z,6.27
2019-03-20T03:10:47.060Z,5.87
2019-03-20T03:15:40.173Z,5.60
2019-03-20T03:20:33.433Z,6.57
2019-03-20T03:25:26.625Z,6.43
2019-03-20T03:30:20.510Z,6.20
2019-03-20T03:35:18.122Z,6.10
2019-03-20T03:40:10.876Z,6.87
2019-03-20T03:45:07.982Z,6.70
2019-03-20T03:50:01.567Z,5.53
2019-03-20T03:54:55.115Z,6.23
2019-03-20T03:59:48.317Z,5.97
2019-03-20T04:04:41.585Z,6.30
2019-03-20T04:09:34.789Z,6.43
2019-03-20T04:14:27.979Z,5.50
2019-03-20T04:19:21.051Z,5.77
2019-03-20T04:24:14.456Z,6.10
2019-03-20T04:29:07.660Z,6.03
2019-03-20T04:34:01.393Z,5.70
2019-03-20T04:38:54.604Z,6.10
2019-03-20T04:43:48.290Z,5.50
2019-03-20T04:48:41.778Z,6.23
2019-03-20T04:53:35.611Z,5.87
2019-03-20T04:58:29.360Z,6.37
2019-03-20T05:03:22.551Z,5.60
2019-03-20T05:08:17.121Z,6.00
2019-03-20T05:13:10.436Z,5.30
2019-03-20T05:18:03.669Z,6.50
2019-03-20T05:22:56.942Z,6.67
2019-03-20T05:27:50.293Z,6.40
2019-03-20T05:32:43.529Z,6.50
2019-03-20T05:37:37.419Z,6.00
2019-03-20T05:42:31.012Z,6.10
2019-03-20T05:47:24.389Z,6.10
2019-03-20T05:52:17.557Z,5.67
2019-03-20T05:57:12.610Z,6.30
2019-03-20T06:02:05.936Z,6.17
2019-03-20T06:06:59.147Z,6.33
2019-03-20T06:11:52.488Z,6.20
2019-03-20T06:16:46.155Z,6.07
2019-03-20T06:21:39.284Z,6.87
2019-03-20T06:26:32.611Z,6.40
2019-03-20T06:31:25.832Z,6.70
2019-03-20T06:36:19.004Z,5.97
2019-03-20T06:41:12.137Z,6.60
2019-03-20T06:46:05.383Z,6.80
2019-03-20T06:50:58.617Z,6.30
2019-03-20T06:55:51.943Z,5.90
2019-03-20T07:01:13.037Z,6.50
2019-03-20T07:06:50.060Z,6.17
2019-03-20T07:11:43.299Z,6.10
2019-03-20T07:16:36.553Z,7.03
2019-03-20T07:21:29.741Z,6.30
2019-03-20T07:26:22.875Z,6.50
2019-03-20T07:31:16.147Z,6.90
2019-03-20T07:36:09.767Z,7.40
2019-03-20T07:41:03.089Z,6.33
2019-03-20T07:45:56.196Z,6.97
2019-03-20T07:50:49.402Z,5.80
2019-03-20T07:55:42.597Z,6.43
2019-03-20T08:00:35.825Z,6.43
2019-03-20T08:05:29.746Z,6.47
2019-03-20T08:10:23.165Z,6.93
2019-03-20T08:15:16.854Z,6.93
2019-03-20T08:20:11.850Z,7.33
2019-03-20T08:25:05.801Z,5.87
2019-03-20T08:29:59.136Z,6.43
2019-03-20T08:34:52.821Z,6.90
2019-03-20T08:39:46.612Z,6.30
2019-03-20T08:44:41.183Z,7.20
2019-03-20T08:49:34.978Z,6.13
2019-03-20T08:54:28.591Z,6.77
2019-03-20T08:59:21.712Z,7.00
2019-03-20T09:04:15.101Z,7.20
2019-03-20T09:09:08.655Z,5.83
2019-03-20T09:14:02.198Z,6.07
2019-03-20T09:18:55.714Z,7.03
2019-03-20T09:23:49.053Z,6.23
2019-03-20T09:28:42.370Z,6.80
2019-03-20T09:33:35.728Z,6.73
2019-03-20T09:38:28.911Z,6.30
2019-03-20T09:43:22.249Z,5.93
2019-03-20T09:48:15.449Z,6.10
2019-03-20T09:53:08.731Z,6.43
2019-03-20T09:58:11.173Z,5.93
2019-03-20T10:02:57.039Z,5.90
2019-03-20T10:07:50.261Z,6.33
2019-03-20T10:12:43.620Z,6.33
2019-03-20T10:17:36.951Z,5.90
2019-03-20T10:22:30.826Z,5.97
2019-03-20T10:27:24.118Z,6.37
2019-03-20T10:32:17.452Z,6.40
2019-03-20T10:37:10.713Z,6.20
2019-03-20T10:42:04.445Z,5.73
2019-03-20T10:46:58.104Z,5.97
2019-03-20T10:51:51.652Z,6.47
2019-03-20T10:56:45.284Z,6.43
2019-03-20T11:01:42.758Z,6.23
2019-03-20T11:06:34.538Z,6.37
2019-03-20T11:11:28.033Z,6.40
2019-03-20T11:16:21.641Z,6.47
2019-03-20T11:21:15.158Z,7.00
2019-03-20T11:26:08.685Z,6.47
2019-03-20T11:31:02.598Z,7.40
2019-03-20T11:35:56.168Z,7.40
2019-03-20T11:40:49.781Z,8.00
2019-03-20T11:45:43.753Z,7.40
2019-03-20T11:50:38.151Z,7.07
2019-03-20T11:55:31.805Z,7.87
2019-03-20T12:00:28.043Z,7.77
2019-03-20T12:05:21.654Z,6.83
2019-03-20T12:10:28.278Z,5.27
2019-03-20T12:15:21.670Z,4.23
2019-03-20T12:20:17.170Z,4.87
2019-03-20T12:25:16.908Z,5.20
2019-03-20T12:30:13.758Z,5.40
2019-03-20T12:35:22.272Z,4.57
2019-03-20T12:40:22.535Z,4.53
2019-03-20T12:45:17.011Z,5.00
2019-03-20T12:50:14.253Z,3.73
2019-03-20T12:55:09.938Z,4.37
2019-03-20T13:00:04.782Z,3.27
2019-03-20T13:04:58.118Z,3.30
2019-03-20T13:09:51.450Z,2.50
2019-03-20T13:14:49.692Z,2.43
2019-03-20T13:19:46.165Z,2.47
2019-03-20T13:24:43.101Z,2.60
2019-03-20T13:29:35.743Z,3.60
2019-03-20T13:34:29.015Z,3.13
2019-03-20T13:39:22.261Z,2.90
2019-03-20T13:44:16.268Z,2.73
2019-03-20T13:49:09.383Z,3.00
2019-03-20T13:54:02.595Z,2.83
2019-03-20T13:58:55.897Z,3.33
2019-03-20T14:03:50.383Z,2.90
2019-03-20T14:08:43.627Z,3.30
2019-03-20T14:13:38.127Z,3.00
2019-03-20T14:18:32.303Z,3.50
2019-03-20T14:23:25.572Z,3.33
2019-03-20T14:28:18.946Z,3.30
2019-03-20T14:33:12.229Z,3.60
2019-03-20T14:38:06.632Z,2.87
2019-03-20T14:42:59.915Z,2.77
2019-03-20T14:47:53.302Z,2.50
2019-03-20T14:52:46.530Z,2.60
2019-03-20T14:57:39.896Z,2.70
2019-03-20T15:02:34.706Z,2.60
2019-03-20T15:07:28.080Z,2.33
2019-03-20T15:12:21.494Z,2.50
2019-03-20T15:17:14.745Z,2.47
2019-03-20T15:22:08.095Z,2.43
2019-03-20T15:27:01.341Z,2.50
2019-03-20T15:31:54.717Z,2.10
2019-03-20T15:36:47.916Z,2.83
2019-03-20T15:41:41.042Z,2.20
2019-03-20T15:46:46.244Z,2.40
2019-03-20T15:51:39.500Z,2.50
2019-03-20T15:56:32.967Z,2.43
2019-03-20T16:01:28.468Z,2.53
2019-03-20T16:06:21.592Z,3.20
2019-03-20T16:11:28.332Z,3.50
2019-03-20T16:16:21.678Z,2.80
2019-03-20T16:21:15.361Z,2.43
2019-03-20T16:26:08.995Z,2.90
2019-03-20T16:31:02.667Z,2.60
2019-03-20T16:35:55.996Z,2.70
2019-03-20T16:40:49.232Z,2.27
2019-03-20T16:45:42.452Z,2.80
2019-03-20T16:50:35.575Z,2.63
2019-03-20T16:55:28.947Z,2.80
2019-03-20T17:00:26.587Z,4.10
2019-03-20T17:05:19.820Z,2.57
2019-03-20T17:10:17.192Z,2.90
2019-03-20T17:15:15.754Z,3.70
2019-03-20T17:20:09.088Z,3.40
2019-03-20T17:25:02.355Z,3.07
2019-03-20T17:29:55.589Z,4.53
2019-03-20T17:34:48.837Z,3.23
2019-03-20T17:39:42.162Z,3.93
2019-03-20T17:44:35.816Z,3.60
2019-03-20T17:49:29.130Z,3.50
2019-03-20T17:54:22.258Z,4.13
2019-03-20T17:59:15.488Z,3.60
2019-03-20T18:04:08.809Z,3.50
2019-03-20T18:09:02.120Z,3.20
2019-03-20T18:13:55.265Z,4.07
2019-03-20T18:18:48.488Z,6.70
2019-03-20T18:23:41.699Z,4.00
2019-03-20T18:28:34.965Z,4.37
2019-03-20T18:33:28.194Z,4.37
2019-03-20T18:38:21.421Z,4.43
2019-03-20T18:43:14.566Z,4.20
2019-03-20T18:48:07.943Z,4.40
2019-03-20T18:53:01.277Z,4.70
2019-03-20T18:57:54.629Z,5.23
2019-03-20T19:02:48.041Z,5.27
2019-03-20T19:07:41.422Z,5.10
2019-03-20T19:12:34.754Z,5.60
2019-03-20T19:17:28.035Z,5.63
2019-03-20T19:22:21.386Z,5.63
2019-03-20T19:27:14.580Z,4.13
2019-03-20T19:32:07.920Z,7.03
2019-03-20T19:37:01.253Z,6.67
2019-03-20T19:41:54.385Z,6.33
2019-03-20T19:46:47.582Z,8.20
2019-03-20T19:51:40.815Z,5.07
2019-03-20T19:56:33.932Z,5.73
2019-03-20T20:01:27.162Z,6.83
2019-03-20T20:06:20.451Z,8.17
2019-03-20T20:11:13.695Z,8.47
2019-03-20T20:16:06.788Z,7.27
2019-03-20T20:21:00.037Z,6.80
2019-03-20T20:25:53.220Z,6.90
2019-03-20T20:30:46.478Z,8.10
2019-03-20T20:35:39.709Z,16.97
2019-03-20T20:40:33.062Z,12.63
2019-03-20T20:45:26.324Z,11.37
2019-03-20T20:50:19.553Z,8.70
2019-03-20T20:55:13.317Z,8.50
2019-03-20T21:00:15.792Z,8.00
2019-03-20T21:05:09.237Z,7.13
2019-03-20T21:10:02.549Z,6.67
2019-03-20T21:14:55.736Z,5.50
2019-03-20T21:19:49.831Z,8.07
2019-03-20T21:24:44.019Z,7.00
2019-03-20T21:30:25.584Z,7.80
2019-03-20T21:36:37.715Z,6.37
2019-03-20T21:42:28.314Z,6.37
2019-03-20T21:47:36.272Z,6.70
2019-03-20T21:52:30.337Z,7.27
2019-03-20T21:58:21.552Z,6.90
2019-03-20T22:03:15.541Z,5.80
2019-03-20T22:08:11.242Z,7.33
2019-03-20T22:13:56.907Z,6.87
2019-03-20T22:19:40.362Z,7.23
2019-03-20T22:25:50.690Z,6.60
2019-03-20T22:30:44.948Z,6.03
2019-03-20T22:35:56.303Z,6.73
2019-03-20T22:41:52.332Z,6.20
2019-03-20T22:47:37.936Z,7.30
2019-03-20T22:53:37.652Z,8.00
2019-03-20T22:58:42.605Z,7.93
2019-03-20T23:03:46.118Z,7.70
2019-03-20T23:08:41.644Z,7.23
2019-03-20T23:13:41.471Z,7.97
2019-03-20T23:18:32.270Z,8.43
2019-03-20T23:23:26.592Z,8.77
2019-03-20T23:28:21.349Z,8.67
2019-03-20T23:33:16.175Z,8.17
2019-03-20T23:38:10.806Z,9.20
2019-03-20T23:43:05.487Z,9.17
2019-03-20T23:48:32.292Z,8.77
2019-03-20T23:53:26.851Z,9.00
2019-03-20T23:58:21.189Z,8.53
